Time;durP1;ratioP1;P1;durP2;ratioP2;P2;SDS_P1;SDS_P2;PMS_P1;PMS_P2;Temp;Humidity;BMP_temperature;BMP_pressure;BME280_temperature;BME280_humidity;BME280_pressure;Samples;Min_cycle;Max_cycle;Signal;HPM_P1;HPM_P2
2022/09/22 00:01:34;;;;;;;;;;;;;;;;;;5029730;28;20375;-62
2022/09/22 00:04:03;;;;;;;;;;;;;;;;;;5047053;28;19909;-62
2022/09/22 00:06:29;;;;;;;;;;;;;;;;;;5047366;28;19905;-63
2022/09/22 00:08:54;;;;;;;;;;;;;;;;;;5046713;28;19954;-62
2022/09/22 00:11:20;;;;;;;;;;;;;;;;;;5047153;28;19924;-62
2022/09/22 00:13:46;;;;;;;;;;;;;;;;;;5047736;28;19905;-62
2022/09/22 00:16:12;;;;;;;;;;;;;;;;;;5047120;28;19920;-63
2022/09/22 00:18:38;;;;;;;;;;;;;;;;;;5047200;28;19928;-62
2022/09/22 00:21:06;;;;;;;;;;;;;;;;;;5046950;28;20287;-62
2022/09/22 00:23:32;;;;;;;;;;;;;;;;;;5046618;28;19913;-62
2022/09/22 00:26:02;;;;;;;;;;;;;;;;;;5046511;28;19913;-62
2022/09/22 00:28:28;;;;;;;;;;;;;;;;;;5047123;28;19913;-63
2022/09/22 00:30:54;;;;;;;;;;;;;;;;;;5046640;28;19911;-62
2022/09/22 00:33:20;;;;;;;;;;;;;;;;;;5046749;28;20277;-62
2022/09/22 00:35:46;;;;;;;;;;;;;;;;;;5047313;28;19912;-63
2022/09/22 00:38:12;;;;;;;;;;;;;;;;;;5046818;28;20459;-63
2022/09/22 00:40:38;;;;;;;;;;;;;;;;;;5046450;28;19912;-62
2022/09/22 00:43:05;;;;;;;;;;;;;;;;;;5046646;28;19958;-63
2022/09/22 00:45:31;;;;;;;;;;;;;;;;;;5046568;28;20004;-62
2022/09/22 00:47:56;;;;;;;;;;;;;;;;;;5046384;28;19995;-62
2022/09/22 00:50:23;;;;;;;;;;;;;;;;;;5046516;28;20376;-62
2022/09/22 00:52:49;;;;;;;;;;;;;;;;;;5046973;28;20364;-62
2022/09/22 00:55:16;;;;;;;;;;;;;;;;;;5045742;28;19912;-62
2022/09/22 00:57:42;;;;;;;;;;;;;;;;;;5046438;28;19928;-62
2022/09/22 01:00:09;;;;;;;;;;;;;;;;;;5045800;28;19912;-62
2022/09/22 01:02:36;;;;;;;;;;;;;;;;;;5046412;28;19904;-62
2022/09/22 01:05:02;;;;;;;;;;;;;;;;;;5046047;28;20414;-62
2022/09/22 01:07:28;;;;;;;;;;;;;;;;;;5046398;28;19908;-62
2022/09/22 01:09:54;;;;;;;;;;;;;;;;;;5045570;28;19904;-62
2022/09/22 01:12:21;;;;;;;;;;;;;;;;;;5045946;28;19961;-62
2022/09/22 01:14:47;;;;;;;;;;;;;;;;;;5046175;28;19919;-62
2022/09/22 01:17:14;;;;;;;;;;;;;;;;;;5046190;28;19909;-62
2022/09/22 01:19:42;;;;;;;;;;;;;;;;;;5045908;28;19936;-62
2022/09/22 01:22:08;;;;;;;;;;;;;;;;;;5045678;28;19909;-62
2022/09/22 01:24:34;;;;;;;;;;;;;;;;;;5046031;28;20406;-62
2022/09/22 01:27:00;;;;;;;;;;;;;;;;;;5045568;28;19909;-62
2022/09/22 01:29:26;;;;;;;;;;;;;;;;;;5045615;28;19911;-62
2022/09/22 01:31:52;;;;;;;;;;;;;;;;;;5045755;28;19944;-62
2022/09/22 01:34:19;;;;;;;;;;;;;;;;;;5046278;28;20415;-62
2022/09/22 01:36:45;;;;;;;;;;;;;;;;;;5046008;28;19958;-62
2022/09/22 01:39:12;;;;;;;;;;;;;;;;;;5045060;28;19908;-62
2022/09/22 01:41:41;;;;;;;;;;;;;;;;;;5045726;28;19956;-62
2022/09/22 01:44:07;;;;;;;;;;;;;;;;;;5045300;28;19919;-62
2022/09/22 01:46:33;;;;;;;;;;;;;;;;;;5045682;28;20303;-62
2022/09/22 01:48:59;;;;;;;;;;;;;;;;;;5045132;28;20436;-62
2022/09/22 01:51:26;;;;;;;;;;;;;;;;;;5045355;28;20300;-62
2022/09/22 01:53:52;;;;;;;;;;;;;;;;;;5044978;28;19901;-62
2022/09/22 01:56:18;;;;;;;;;;;;;;;;;;5046035;28;19913;-62
2022/09/22 01:58:45;;;;;;;;;;;;;;;;;;5045272;28;19912;-63
2022/09/22 02:01:11;;;;;;;;;;;;;;;;;;5045197;28;19959;-62
2022/09/22 02:03:37;;;;;;;;;;;;;;;;;;5045394;28;19908;-62
2022/09/22 02:06:05;;;;;;;;;;;;;;;;;;5044555;28;19909;-62
2022/09/22 02:08:31;;;;;;;;;;;;;;;;;;5045074;28;20456;-62
2022/09/22 02:10:57;;;;;;;;;;;;;;;;;;5044677;28;19909;-62
2022/09/22 02:13:23;;;;;;;;;;;;;;;;;;5044970;28;20311;-62
2022/09/22 02:16:01;;;;;;;;;;;;;;;;;;5045817;28;19909;-63
2022/09/22 02:18:27;;;;;;;;;;;;;;;;;;5045007;28;20323;-62
2022/09/22 02:20:53;;;;;;;;;;;;;;;;;;5045070;28;19905;-62
2022/09/22 02:23:19;;;;;;;;;;;;;;;;;;5045563;28;20012;-62
2022/09/22 02:25:45;;;;;;;;;;;;;;;;;;5045709;28;20314;-62
2022/09/22 02:28:11;;;;;;;;;;;;;;;;;;5044707;28;19909;-62
2022/09/22 02:30:37;;;;;;;;;;;;;;;;;;5044863;28;19947;-62
2022/09/22 02:33:02;;;;;;;;;;;;;;;;;;5044554;28;19909;-62
2022/09/22 02:35:29;;;;;;;;;;;;;;;;;;5044902;28;19912;-63
2022/09/22 02:37:55;;;;;;;;;;;;;;;;;;5044794;28;20432;-62
2022/09/22 02:40:21;;;;;;;;;;;;;;;;;;5044784;28;19980;-62
2022/09/22 02:42:47;;;;;;;;;;;;;;;;;;5045407;28;19967;-62
2022/09/22 02:45:13;;;;;;;;;;;;;;;;;;5044090;28;20384;-62
2022/09/22 02:47:38;;;;;;;;;;;;;;;;;;5045010;28;20404;-62
2022/09/22 02:50:04;;;;;;;;;;;;;;;;;;5043878;28;19908;-62
2022/09/22 02:52:30;;;;;;;;;;;;;;;;;;5044144;28;20481;-62
2022/09/22 02:54:57;;;;;;;;;;;;;;;;;;5044340;28;19905;-62
2022/09/22 02:57:23;;;;;;;;;;;;;;;;;;5044228;28;19909;-62
2022/09/22 02:59:50;;;;;;;;;;;;;;;;;;5043981;28;19915;-62
2022/09/22 03:02:16;;;;;;;;;;;;;;;;;;5045445;28;19905;-62
2022/09/22 03:04:42;;;;;;;;;;;;;;;;;;5044706;28;19915;-62
2022/09/22 03:07:08;;;;;;;;;;;;;;;;;;5044272;28;20021;-62
2022/09/22 03:09:34;;;;;;;;;;;;;;;;;;5044634;28;19908;-62
2022/09/22 03:12:00;;;;;;;;;;;;;;;;;;5044268;28;19924;-62
2022/09/22 03:14:27;;;;;;;;;;;;;;;;;;5044497;28;19913;-62
2022/09/22 03:16:53;;;;;;;;;;;;;;;;;;5043640;28;19988;-62
2022/09/22 03:19:20;;;;;;;;;;;;;;;;;;5046719;28;20008;-62
2022/09/22 03:21:46;;;;;;;;;;;;;;;;;;5048779;28;20091;-62
2022/09/22 03:24:12;;;;;;;;;;;;;;;;;;5047913;28;20003;-62
2022/09/22 03:26:38;;;;;;;;;;;;;;;;;;5047945;28;20379;-62
2022/09/22 03:29:04;;;;;;;;;;;;;;;;;;5048089;28;19909;-62
2022/09/22 03:31:30;;;;;;;;;;;;;;;;;;5048009;28;20015;-62
2022/09/22 03:33:56;;;;;;;;;;;;;;;;;;5048124;28;19938;-62
2022/09/22 03:36:23;;;;;;;;;;;;;;;;;;5047926;28;19995;-62
2022/09/22 03:38:50;;;;;;;;;;;;;;;;;;5047441;28;20528;-62
2022/09/22 03:41:17;;;;;;;;;;;;;;;;;;5048306;28;19905;-62
2022/09/22 03:43:44;;;;;;;;;;;;;;;;;;5048249;28;20339;-62
2022/09/22 03:46:12;;;;;;;;;;;;;;;;;;5047815;28;19962;-62
2022/09/22 03:48:39;;;;;;;;;;;;;;;;;;5047519;28;19913;-62
2022/09/22 03:51:05;;;;;;;;;;;;;;;;;;5048084;28;19963;-62
2022/09/22 03:53:32;;;;;;;;;;;;;;;;;;5047241;28;19940;-62
2022/09/22 03:55:59;;;;;;;;;;;;;;;;;;5047481;28;20108;-62
2022/09/22 03:58:26;;;;;;;;;;;;;;;;;;5047561;28;20383;-62
2022/09/22 04:00:53;;;;;;;;;;;;;;;;;;5047236;28;20500;-62
2022/09/22 04:03:18;;;;;;;;;;;;;;;;;;5047343;28;20303;-61
2022/09/22 04:05:45;;;;;;;;;;;;;;;;;;5047662;28;19916;-63
2022/09/22 04:08:11;;;;;;;;;;;;;;;;;;5047238;28;20232;-62
2022/09/22 04:10:37;;;;;;;;;;;;;;;;;;5046939;28;19944;-63
2022/09/22 04:13:03;;;;;;;;;;;;;;;;;;5047087;28;19981;-62
2022/09/22 04:15:29;;;;;;;;;;;;;;;;;;5047024;28;19913;-62
2022/09/22 04:17:56;;;;;;;;;;;;;;;;;;5046813;28;19909;-62
2022/09/22 04:20:22;;;;;;;;;;;;;;;;;;5046924;28;19912;-62
2022/09/22 04:22:49;;;;;;;;;;;;;;;;;;5047053;28;19924;-62
2022/09/22 04:25:15;;;;;;;;;;;;;;;;;;5047633;28;19909;-62
2022/09/22 04:27:41;;;;;;;;;;;;;;;;;;5046306;28;19912;-62
2022/09/22 04:30:07;;;;;;;;;;;;;;;;;;5046849;28;20388;-62
2022/09/22 04:32:33;;;;;;;;;;;;;;;;;;5046515;28;20399;-62
2022/09/22 04:35:00;;;;;;;;;;;;;;;;;;5046655;28;19908;-62
2022/09/22 04:37:26;;;;;;;;;;;;;;;;;;5046598;28;19912;-62
2022/09/22 04:39:54;;;;;;;;;;;;;;;;;;5046391;28;19913;-62
2022/09/22 04:42:21;;;;;;;;;;;;;;;;;;5046573;28;19909;-62
2022/09/22 04:44:47;;;;;;;;;;;;;;;;;;5046891;28;20465;-62
2022/09/22 04:47:13;;;;;;;;;;;;;;;;;;5046545;28;19955;-62
2022/09/22 04:49:39;;;;;;;;;;;;;;;;;;5045995;28;19999;-62
2022/09/22 04:52:06;;;;;;;;;;;;;;;;;;5046315;28;19908;-62
2022/09/22 04:54:33;;;;;;;;;;;;;;;;;;5046183;28;19905;-62
2022/09/22 04:57:00;;;;;;;;;;;;;;;;;;5046544;28;19990;-62
2022/09/22 04:59:26;;;;;;;;;;;;;;;;;;5046517;28;19955;-62
2022/09/22 05:01:53;;;;;;;;;;;;;;;;;;5045934;28;19952;-62
2022/09/22 05:04:20;;;;;;;;;;;;;;;;;;5046313;28;20122;-62
2022/09/22 05:06:46;;;;;;;;;;;;;;;;;;5046568;28;19999;-62
2022/09/22 05:09:12;;;;;;;;;;;;;;;;;;5046165;28;19999;-62
2022/09/22 05:11:38;;;;;;;;;;;;;;;;;;5046023;28;19919;-62
2022/09/22 05:14:05;;;;;;;;;;;;;;;;;;5046238;28;19947;-62
2022/09/22 05:16:32;;;;;;;;;;;;;;;;;;5045974;28;19915;-62
2022/09/22 05:18:58;;;;;;;;;;;;;;;;;;5045969;28;19904;-62
2022/09/22 05:21:25;;;;;;;;;;;;;;;;;;5045917;28;20007;-62
2022/09/22 05:23:51;;;;;;;;;;;;;;;;;;5045595;28;19913;-62
2022/09/22 05:26:18;;;;;;;;;;;;;;;;;;5046514;28;19911;-62
2022/09/22 05:28:45;;;;;;;;;;;;;;;;;;5046129;28;19938;-62
2022/09/22 05:31:12;;;;;;;;;;;;;;;;;;5045306;28;19909;-61
2022/09/22 05:33:38;;;;;;;;;;;;;;;;;;5046477;28;19905;-61
2022/09/22 05:36:03;;;;;;;;;;;;;;;;;;5046754;28;19904;-61
2022/09/22 05:38:29;;;;;;;;;;;;;;;;;;5047002;28;20446;-61
2022/09/22 05:40:55;;;;;;;;;;;;;;;;;;5042211;28;19913;-61
2022/09/22 05:43:21;;;;;;;;;;;;;;;;;;5026657;28;19909;-62
2022/09/22 05:45:48;;;;;;;;;;;;;;;;;;5027220;28;19912;-61
2022/09/22 05:48:14;;;;;;;;;;;;;;;;;;5027483;28;19905;-62
2022/09/22 05:50:41;;;;;;;;;;;;;;;;;;5038698;28;19915;-61
2022/09/22 05:53:07;;;;;;;;;;;;;;;;;;5046529;28;19996;-61
2022/09/22 05:55:34;;;;;;;;;;;;;;;;;;5046828;28;19987;-61
2022/09/22 05:58:00;;;;;;;;;;;;;;;;;;5046735;28;19909;-61
2022/09/22 06:00:26;;;;;;;;;;;;;;;;;;5046555;28;19973;-62
2022/09/22 06:02:52;;;;;;;;;;;;;;;;;;5046445;28;19908;-61
2022/09/22 06:05:18;;;;;;;;;;;;;;;;;;5047253;28;19912;-62
2022/09/22 06:07:44;;;;;;;;;;;;;;;;;;5046951;28;19931;-61
2022/09/22 06:10:13;;;;;;;;;;;;;;;;;;5046620;28;20007;-62
2022/09/22 06:12:38;;;;;;;;;;;;;;;;;;5046243;28;19927;-61
2022/09/22 06:15:04;;;;;;;;;;;;;;;;;;5046120;28;19908;-61
2022/09/22 06:17:30;;;;;;;;;;;;;;;;;;5046040;28;19908;-61
2022/09/22 06:19:57;;;;;;;;;;;;;;;;;;5046323;28;19908;-61
2022/09/22 06:22:23;;;;;;;;;;;;;;;;;;5046264;28;19909;-61
2022/09/22 06:24:49;;;;;;;;;;;;;;;;;;5046120;28;20000;-61
2022/09/22 06:27:16;;;;;;;;;;;;;;;;;;5046014;28;20011;-62
2022/09/22 06:29:43;;;;;;;;;;;;;;;;;;5040748;28;19911;-62
2022/09/22 06:32:09;;;;;;;;;;;;;;;;;;5044548;28;20380;-62
2022/09/22 06:34:35;;;;;;;;;;;;;;;;;;5045056;28;19915;-62
2022/09/22 06:37:01;;;;;;;;;;;;;;;;;;5044375;28;19913;-61
2022/09/22 06:39:27;;;;;;;;;;;;;;;;;;5045095;28;20442;-62
2022/09/22 06:41:54;;;;;;;;;;;;;;;;;;5034539;28;19909;-61
2022/09/22 06:44:20;;;;;;;;;;;;;;;;;;5031285;28;19947;-61
2022/09/22 06:46:46;;;;;;;;;;;;;;;;;;5046231;28;19909;-61
2022/09/22 06:49:12;;;;;;;;;;;;;;;;;;5046649;28;19913;-61
2022/09/22 06:51:38;;;;;;;;;;;;;;;;;;5045090;28;19970;-62
2022/09/22 06:54:04;;;;;;;;;;;;;;;;;;5047887;28;20023;-61
2022/09/22 06:56:33;;;;;;;;;;;;;;;;;;5048875;28;20355;-61
2022/09/22 06:58:59;;;;;;;;;;;;;;;;;;5050733;28;19950;-61
2022/09/22 07:01:28;;;;;;;;;;;;;;;;;;5049570;28;19910;-61
2022/09/22 07:03:54;;;;;;;;;;;;;;;;;;5050399;28;20359;-61
2022/09/22 07:06:21;;;;;;;;;;;;;;;;;;5049221;28;19909;-62
2022/09/22 07:08:47;;;;;;;;;;;;;;;;;;5049272;28;19959;-61
2022/09/22 07:11:13;;;;;;;;;;;;;;;;;;5049341;28;19916;-61
2022/09/22 07:13:39;;;;;;;;;;;;;;;;;;5049392;28;19916;-61
2022/09/22 07:16:08;;;;;;;;;;;;;;;;;;5049952;28;20351;-61
2022/09/22 07:18:34;;;;;;;;;;;;;;;;;;5048971;28;19909;-62
2022/09/22 07:21:00;;;;;;;;;;;;;;;;;;5048046;28;20409;-62
2022/09/22 07:23:26;;;;;;;;;;;;;;;;;;5047889;28;20412;-61
2022/09/22 07:25:55;;;;;;;;;;;;;;;;;;5047860;28;19912;-61
2022/09/22 07:28:22;;;;;;;;;;;;;;;;;;5048266;28;20287;-62
2022/09/22 07:30:47;;;;;;;;;;;;;;;;;;5048327;28;19912;-61
2022/09/22 07:33:14;;;;;;;;;;;;;;;;;;5048562;28;19912;-61
2022/09/22 07:35:41;;;;;;;;;;;;;;;;;;5047563;28;19909;-61
2022/09/22 07:38:07;;;;;;;;;;;;;;;;;;5047800;28;19916;-62
2022/09/22 07:40:34;;;;;;;;;;;;;;;;;;5047404;28;20383;-61
2022/09/22 07:43:01;;;;;;;;;;;;;;;;;;5047862;28;19967;-61
2022/09/22 07:45:27;;;;;;;;;;;;;;;;;;5047652;28;19908;-61
2022/09/22 07:50:37;;;;;;;;;;;;;;;;;;5047004;28;19963;-61
2022/09/22 07:53:04;;;;;;;;;;;;;;;;;;5047387;28;19913;-61
2022/09/22 07:55:30;;;;;;;;;;;;;;;;;;5047469;28;19905;-61
2022/09/22 07:57:56;;;;;;;;;;;;;;;;;;5047270;28;19944;-62
2022/09/22 08:00:23;;;;;;;;;;;;;;;;;;5047476;28;19909;-62
2022/09/22 08:02:49;;;;;;;;;;;;;;;;;;5046976;28;20399;-61
2022/09/22 08:05:16;;;;;;;;;;;;;;;;;;5047216;28;20265;-62
2022/09/22 08:07:42;;;;;;;;;;;;;;;;;;5047017;28;19916;-62
2022/09/22 08:10:10;;;;;;;;;;;;;;;;;;5047275;28;19913;-62
2022/09/22 08:12:37;;;;;;;;;;;;;;;;;;5047113;28;20066;-62
2022/09/22 08:15:03;;;;;;;;;;;;;;;;;;5047257;28;20381;-62
2022/09/22 08:17:30;;;;;;;;;;;;;;;;;;5047220;28;19908;-62
2022/09/22 08:19:58;;;;;;;;;;;;;;;;;;5046542;28;19905;-61
2022/09/22 08:22:24;;;;;;;;;;;;;;;;;;5047178;28;19912;-61
2022/09/22 08:24:50;;;;;;;;;;;;;;;;;;5046741;28;19912;-61
2022/09/22 08:27:16;;;;;;;;;;;;;;;;;;5047624;28;19904;-62
2022/09/22 08:29:42;;;;;;;;;;;;;;;;;;5046498;28;19947;-62
2022/09/22 08:32:08;;;;;;;;;;;;;;;;;;5047018;28;19912;-61
2022/09/22 08:34:34;;;;;;;;;;;;;;;;;;5046208;28;20346;-62
2022/09/22 08:37:01;;;;;;;;;;;;;;;;;;5046925;28;19909;-62
2022/09/22 08:39:29;;;;;;;;;;;;;;;;;;5046846;28;19962;-62
2022/09/22 08:41:55;;;;;;;;;;;;;;;;;;5046673;28;19905;-61
2022/09/22 08:44:21;;;;;;;;;;;;;;;;;;5046652;28;19909;-62
2022/09/22 08:46:47;;;;;;;;;;;;;;;;;;5047377;28;19999;-61
2022/09/22 08:51:59;;;;;;;;;;;;;;;;;;5046549;28;20452;-61
2022/09/22 08:54:25;;;;;;;;;;;;;;;;;;5046667;28;20367;-62
2022/09/22 08:56:53;;;;;;;;;;;;;;;;;;5046160;28;19904;-62
2022/09/22 08:59:21;;;;;;;;;;;;;;;;;;5046448;28;20447;-61
2022/09/22 09:01:50;;;;;;;;;;;;;;;;;;5046719;28;19963;-62
2022/09/22 09:04:17;;;;;;;;;;;;;;;;;;5046919;28;19908;-62
2022/09/22 09:06:43;;;;;;;;;;;;;;;;;;5046499;28;19915;-62
2022/09/22 09:09:09;;;;;;;;;;;;;;;;;;5046352;28;19913;-62
2022/09/22 09:11:35;;;;;;;;;;;;;;;;;;5045817;28;20426;-62
2022/09/22 09:14:01;;;;;;;;;;;;;;;;;;5046032;28;19909;-62
2022/09/22 09:16:26;;;;;;;;;;;;;;;;;;5045209;28;19904;-62
2022/09/22 09:18:52;;;;;;;;;;;;;;;;;;5045716;28;19916;-62
2022/09/22 09:21:18;;;;;;;;;;;;;;;;;;5028511;28;19940;-62
2022/09/22 09:23:44;;;;;;;;;;;;;;;;;;5046273;28;20447;-62
2022/09/22 09:26:10;;;;;;;;;;;;;;;;;;5046124;28;20224;-45
2022/09/22 09:28:38;;;;;;;;;;;;;;;;;;5045516;28;20296;-43
2022/09/22 09:31:06;;;;;;;;;;;;;;;;;;5046051;28;19916;-43
2022/09/22 09:33:33;;;;;;;;;;;;;;;;;;5045184;28;19912;-47
2022/09/22 09:35:59;;;;;;;;;;;;;;;;;;5045809;28;19905;-47
2022/09/22 09:38:26;;;;;;;;;;;;;;;;;;5045679;28;19911;-45
2022/09/22 09:40:53;;;;;;;;;;;;;;;;;;5045364;28;19908;-46
2022/09/22 09:43:20;;;;;;;;;;;;;;;;;;5045616;28;19982;-46
2022/09/22 09:45:47;;;;;;;;;;;;;;;;;;5045969;28;19911;-46
2022/09/22 09:48:13;;;;;;;;;;;;;;;;;;5046927;28;19913;-43
2022/09/22 09:50:40;;;;;;;;;;;;;;;;;;5045797;28;19909;-46
2022/09/22 09:53:06;;;;;;;;;;;;;;;;;;5042126;28;20376;-44
2022/09/22 09:55:34;;;;;;;;;;;;;;;;;;5045897;28;19905;-45
2022/09/22 09:58:00;;;;;;;;;;;;;;;;;;5045226;28;19916;-45
2022/09/22 10:00:31;;;;;;;;;;;;;;;;;;5045165;28;19909;-44
2022/09/22 10:02:57;;;;;;;;;;;;;;;;;;5044113;28;20525;-47
2022/09/22 10:05:25;;;;;;;;;;;;;;;;;;5042345;28;19913;-43
2022/09/22 10:07:52;;;;;;;;;;;;;;;;;;5045436;28;20466;-45
2022/09/22 10:10:18;;;;;;;;;;;;;;;;;;5045307;28;19951;-44
2022/09/22 10:12:45;;;;;;;;;;;;;;;;;;5046131;28;20075;-45
2022/09/22 10:15:11;;;;;;;;;;;;;;;;;;5044300;28;19911;-47
2022/09/22 10:17:37;;;;;;;;;;;;;;;;;;5044818;28;19996;-44
2022/09/22 10:20:04;;;;;;;;;;;;;;;;;;5044901;28;19931;-44
2022/09/22 10:22:30;;;;;;;;;;;;;;;;;;5045572;28;19908;-44
2022/09/22 10:24:56;;;;;;;;;;;;;;;;;;5044758;28;20003;-44
2022/09/22 10:27:22;;;;;;;;;;;;;;;;;;5047942;28;20338;-43
2022/09/22 10:29:49;;;;;;;;;;;;;;;;;;5050783;28;19916;-44
2022/09/22 10:32:16;;;;;;;;;;;;;;;;;;5053068;28;19928;-44
2022/09/22 10:34:45;;;;;;;;;;;;;;;;;;5050668;28;19904;-47
2022/09/22 10:37:11;;;;;;;;;;;;;;;;;;5052382;28;19912;-44
2022/09/22 10:39:37;;;;;;;;;;;;;;;;;;5050840;28;20288;-44
2022/09/22 10:42:05;;;;;;;;;;;;;;;;;;5052498;28;19915;-45
2022/09/22 10:44:31;;;;;;;;;;;;;;;;;;5051539;28;19920;-45
2022/09/22 10:46:57;;;;;;;;;;;;;;;;;;5035426;28;20000;-44
2022/09/22 10:49:23;;;;;;;;;;;;;;;;;;5052191;28;20028;-44
2022/09/22 10:51:53;;;;;;;;;;;;;;;;;;5053756;28;19927;-44
2022/09/22 10:54:19;;;;;;;;;;;;;;;;;;5049391;28;20326;-46
2022/09/22 10:56:45;;;;;;;;;;;;;;;;;;5053607;28;19912;-44
2022/09/22 10:59:11;;;;;;;;;;;;;;;;;;5051930;28;20007;-46
2022/09/22 11:01:37;;;;;;;;;;;;;;;;;;5052224;28;19912;-45
2022/09/22 11:04:03;;;;;;;;;;;;;;;;;;5050563;28;19916;-45
2022/09/22 11:12:17;;;;;;;;;;;;;;;;;;5052243;28;20538;-45
2022/09/22 11:14:44;;;;;;;;;;;;;;;;;;5051185;28;20555;-46
2022/09/22 11:17:10;;;;;;;;;;;;;;;;;;5052443;28;19917;-46
2022/09/22 11:19:36;;;;;;;;;;;;;;;;;;5050094;28;19908;-45
2022/09/22 11:22:02;;;;;;;;;;;;;;;;;;5052483;28;19916;-44
2022/09/22 11:24:28;;;;;;;;;;;;;;;;;;5051778;28;20428;-48
2022/09/22 11:26:55;;;;;;;;;;;;;;;;;;5052339;28;19919;-44
2022/09/22 11:29:21;;;;;;;;;;;;;;;;;;5051499;28;20366;-44
2022/09/22 11:31:48;;;;;;;;;;;;;;;;;;5053161;28;19909;-45
2022/09/22 11:34:15;;;;;;;;;;;;;;;;;;5051844;28;19919;-47
2022/09/22 11:36:41;;;;;;;;;;;;;;;;;;5051811;28;20369;-45
2022/09/22 11:39:08;;;;;;;;;;;;;;;;;;5029014;28;19909;-45
2022/09/22 11:41:35;;;;;;;;;;;;;;;;;;5045934;28;20271;-45
2022/09/22 11:44:01;;;;;;;;;;;;;;;;;;5045836;28;20375;-44
2022/09/22 11:46:27;;;;;;;;;;;;;;;;;;5044024;28;19909;-44
2022/09/22 11:48:53;;;;;;;;;;;;;;;;;;5025175;28;20388;-45
2022/09/22 11:51:18;;;;;;;;;;;;;;;;;;5047734;28;19982;-43
2022/09/22 11:53:44;;;;;;;;;;;;;;;;;;5045481;28;19908;-44
2022/09/22 11:56:10;;;;;;;;;;;;;;;;;;5046763;28;19919;-43
2022/09/22 11:58:38;;;;;;;;;;;;;;;;;;5045228;28;20372;-45
2022/09/22 12:01:06;;;;;;;;;;;;;;;;;;5046957;28;19912;-45
2022/09/22 12:03:31;;;;;;;;;;;;;;;;;;5047382;28;20269;-42
2022/09/22 12:05:57;;;;;;;;;;;;;;;;;;5040880;28;19954;-45
2022/09/22 12:08:23;;;;;;;;;;;;;;;;;;5048691;28;19909;-43
2022/09/22 12:10:50;;;;;;;;;;;;;;;;;;5046695;28;19935;-42
2022/09/22 12:13:16;;;;;;;;;;;;;;;;;;5052925;28;19920;-46
2022/09/22 12:15:43;;;;;;;;;;;;;;;;;;5052257;28;20315;-46
2022/09/22 12:18:09;;;;;;;;;;;;;;;;;;5049422;28;19920;-44
2022/09/22 12:20:35;;;;;;;;;;;;;;;;;;5048205;28;20015;-43
2022/09/22 12:23:01;;;;;;;;;;;;;;;;;;5047139;28;19955;-43
2022/09/22 12:25:29;;;;;;;;;;;;;;;;;;5047978;28;19905;-43
2022/09/22 12:27:55;;;;;;;;;;;;;;;;;;5047990;28;19978;-46
2022/09/22 12:30:21;;;;;;;;;;;;;;;;;;5049368;28;19944;-43
2022/09/22 12:32:47;;;;;;;;;;;;;;;;;;5058632;28;19917;-46
2022/09/22 12:35:13;;;;;;;;;;;;;;;;;;5048560;28;19909;-46
2022/09/22 12:37:39;;;;;;;;;;;;;;;;;;5048254;28;19943;-45
2022/09/22 12:40:05;;;;;;;;;;;;;;;;;;5048243;28;19955;-44
2022/09/22 12:42:31;;;;;;;;;;;;;;;;;;5048452;28;19909;-44
2022/09/22 12:44:57;;;;;;;;;;;;;;;;;;5048012;28;19915;-44
2022/09/22 12:47:23;;;;;;;;;;;;;;;;;;5047852;28;20324;-43
2022/09/22 12:49:49;;;;;;;;;;;;;;;;;;5048335;28;19913;-45
2022/09/22 12:52:16;;;;;;;;;;;;;;;;;;5049238;28;19916;-43
2022/09/22 12:54:42;;;;;;;;;;;;;;;;;;5048345;28;19904;-46
2022/09/22 12:57:08;;;;;;;;;;;;;;;;;;5049916;28;19917;-43
2022/09/22 12:59:34;;;;;;;;;;;;;;;;;;5045626;28;20333;-45
2022/09/22 13:02:00;;;;;;;;;;;;;;;;;;5047076;28;20441;-45
2022/09/22 13:04:25;;;;;;;;;;;;;;;;;;5045863;28;19908;-46
2022/09/22 13:06:51;;;;;;;;;;;;;;;;;;5038386;28;20395;-46
2022/09/22 13:09:17;;;;;;;;;;;;;;;;;;5040765;28;19996;-46
2022/09/22 13:11:43;;;;;;;;;;;;;;;;;;5047258;28;20007;-43
2022/09/22 13:14:09;;;;;;;;;;;;;;;;;;5045874;28;19912;-44
2022/09/22 13:16:35;;;;;;;;;;;;;;;;;;5046844;28;20427;-43
2022/09/22 13:19:02;;;;;;;;;;;;;;;;;;5043092;28;19954;-44
2022/09/22 13:21:28;;;;;;;;;;;;;;;;;;5047183;28;19909;-43
2022/09/22 13:23:57;;;;;;;;;;;;;;;;;;5044895;28;19917;-45
2022/09/22 13:26:24;;;;;;;;;;;;;;;;;;5042051;28;19904;-45
2022/09/22 13:28:50;;;;;;;;;;;;;;;;;;5044909;28;19919;-45
2022/09/22 13:31:16;;;;;;;;;;;;;;;;;;5047265;28;19905;-47
2022/09/22 13:33:42;;;;;;;;;;;;;;;;;;5044924;28;19912;-46
2022/09/22 13:36:08;;;;;;;;;;;;;;;;;;5046454;28;20455;-43
2022/09/22 13:38:33;;;;;;;;;;;;;;;;;;5042234;28;20538;-43
2022/09/22 13:41:00;;;;;;;;;;;;;;;;;;5046757;28;19909;-43
2022/09/22 13:43:26;;;;;;;;;;;;;;;;;;5046740;28;19913;-46
2022/09/22 13:45:52;;;;;;;;;;;;;;;;;;5046810;28;20027;-45
2022/09/22 13:48:18;;;;;;;;;;;;;;;;;;5046356;28;20006;-43
2022/09/22 13:50:44;;;;;;;;;;;;;;;;;;5046143;28;19933;-43
2022/09/22 13:53:10;;;;;;;;;;;;;;;;;;5045942;28;19966;-44
2022/09/22 13:55:37;;;;;;;;;;;;;;;;;;5045662;28;20376;-45
2022/09/22 13:58:03;;;;;;;;;;;;;;;;;;5045338;28;19952;-44
2022/09/22 14:00:30;;;;;;;;;;;;;;;;;;5043416;28;19944;-46
2022/09/22 14:02:56;;;;;;;;;;;;;;;;;;5044825;28;19999;-43
2022/09/22 14:05:22;;;;;;;;;;;;;;;;;;5045303;28;20007;-44
2022/09/22 14:07:48;;;;;;;;;;;;;;;;;;5044234;28;19916;-47
2022/09/22 14:10:16;;;;;;;;;;;;;;;;;;5045536;28;19920;-45
2022/09/22 14:12:42;;;;;;;;;;;;;;;;;;5045351;28;19967;-47
2022/09/22 14:15:08;;;;;;;;;;;;;;;;;;5044844;28;19920;-44
2022/09/22 14:17:35;;;;;;;;;;;;;;;;;;5044950;28;19909;-45
2022/09/22 14:20:02;;;;;;;;;;;;;;;;;;5044930;28;19943;-47
2022/09/22 14:22:28;;;;;;;;;;;;;;;;;;5045838;28;19912;-47
2022/09/22 14:24:55;;;;;;;;;;;;;;;;;;5044540;28;20426;-44
2022/09/22 14:27:21;;;;;;;;;;;;;;;;;;5045483;28;19909;-45
2022/09/22 14:29:47;;;;;;;;;;;;;;;;;;5045051;28;19912;-44
2022/09/22 14:32:13;;;;;;;;;;;;;;;;;;5050158;28;19919;-45
2022/09/22 14:34:39;;;;;;;;;;;;;;;;;;5044349;28;19954;-44
2022/09/22 14:37:04;;;;;;;;;;;;;;;;;;5045426;28;19912;-44
2022/09/22 14:39:32;;;;;;;;;;;;;;;;;;5044434;28;19916;-46
2022/09/22 14:41:58;;;;;;;;;;;;;;;;;;5045402;28;19963;-43
2022/09/22 14:44:25;;;;;;;;;;;;;;;;;;5044052;28;19944;-45
2022/09/22 14:46:51;;;;;;;;;;;;;;;;;;5045558;28;20382;-46
2022/09/22 14:49:18;;;;;;;;;;;;;;;;;;5045043;28;19905;-45
2022/09/22 14:51:44;;;;;;;;;;;;;;;;;;5046228;28;19944;-43
2022/09/22 14:54:14;;;;;;;;;;;;;;;;;;5043478;28;19917;-44
2022/09/22 14:56:40;;;;;;;;;;;;;;;;;;5046136;28;19915;-43
2022/09/22 15:04:37;;;;;;;;;;;;;;;;;;5043866;28;19937;-44
2022/09/22 15:07:03;;;;;;;;;;;;;;;;;;5043413;28;20376;-44
2022/09/22 15:09:30;;;;;;;;;;;;;;;;;;5042659;28;19908;-43
2022/09/22 15:11:56;;;;;;;;;;;;;;;;;;5044823;28;20039;-43
2022/09/22 15:14:22;;;;;;;;;;;;;;;;;;5045538;28;19909;-44
2022/09/22 15:16:48;;;;;;;;;;;;;;;;;;5049663;28;19904;-43
2022/09/22 15:19:14;;;;;;;;;;;;;;;;;;5050115;28;19909;-44
2022/09/22 15:21:45;;;;;;;;;;;;;;;;;;5049502;28;19909;-44
2022/09/22 15:24:11;;;;;;;;;;;;;;;;;;5049588;28;19916;-44
2022/09/22 15:26:37;;;;;;;;;;;;;;;;;;5048064;28;19940;-45
2022/09/22 15:29:04;;;;;;;;;;;;;;;;;;5047984;28;20005;-44
2022/09/22 15:31:31;;;;;;;;;;;;;;;;;;5047901;28;20348;-45
2022/09/22 15:33:59;;;;;;;;;;;;;;;;;;5048257;28;20395;-43
2022/09/22 15:36:25;;;;;;;;;;;;;;;;;;5047971;28;20334;-45
2022/09/22 15:38:52;;;;;;;;;;;;;;;;;;5047577;28;19955;-44
2022/09/22 15:41:18;;;;;;;;;;;;;;;;;;5048491;28;19950;-42
2022/09/22 15:43:43;;;;;;;;;;;;;;;;;;5048114;28;20307;-46
2022/09/22 15:46:09;;;;;;;;;;;;;;;;;;5048169;28;19991;-43
2022/09/22 15:48:38;;;;;;;;;;;;;;;;;;5047347;28;20299;-43
2022/09/22 15:51:04;;;;;;;;;;;;;;;;;;5047636;28;19950;-46
2022/09/22 15:53:31;;;;;;;;;;;;;;;;;;5047723;28;19905;-43
2022/09/22 15:55:58;;;;;;;;;;;;;;;;;;5047734;28;19959;-45
2022/09/22 15:58:25;;;;;;;;;;;;;;;;;;5047638;28;19912;-45
2022/09/22 16:00:51;;;;;;;1.02;0.82;;;;;;;;;;5046736;28;20903;-44
2022/09/22 16:03:22;;;;;;;1.75;0.50;;;;;;;;;;5048106;28;20029;-45
2022/09/22 16:05:50;;;;;;;1.20;0.88;;;;;;;;;;5047184;28;20028;-42
2022/09/22 16:08:16;;;;;;;0.60;0.60;;;;;;;;;;5047388;28;20069;-44
2022/09/22 16:10:43;;;;;;;0.88;0.77;;;;;;;;;;5046647;28;20096;-46
2022/09/22 16:13:12;;;;;;;0.93;0.68;;;;;;;;;;5046921;28;20036;-45
2022/09/22 16:15:40;;;;;;;0.98;0.90;;;;;;;;;;5046410;28;20041;-47
2022/09/22 16:18:07;;;;;;;0.85;0.80;;;;;;;;;;5046738;28;20067;-46
2022/09/22 16:20:34;;;;;;;1.45;0.73;;;;;;;;;;5046282;28;20534;-47
2022/09/22 16:23:00;;;;;;;0.75;0.70;;;;;;;;;;5046974;28;20055;-43
2022/09/22 16:25:28;;;;;;;1.67;0.80;;;;;;;;;;5046242;28;20518;-44
2022/09/22 16:27:54;;;;;;;0.70;0.70;;;;;;;;;;5046496;28;20014;-44
2022/09/22 16:30:21;;;;;;;0.95;0.73;;;;;;;;;;5046407;28;20067;-45
2022/09/22 16:32:48;;;;;;;1.55;0.95;;;;;;;;;;5046883;28;20099;-44
2022/09/22 16:35:14;;;;;;;3.03;0.80;;;;;;;;;;5046972;28;20036;-46
2022/09/22 16:37:41;;;;;;;1.00;0.90;;;;;;;;;;5046086;28;20029;-45
2022/09/22 16:40:07;;;;;;;0.70;0.70;;;;;;;;;;5046670;28;20028;-44
2022/09/22 16:42:33;;;;;;;1.73;0.90;;;;;;;;;;5046120;28;20506;-47
2022/09/22 16:44:59;;;;;;;1.70;0.80;;;;;;;;;;5046315;28;20032;-46
2022/09/22 16:47:25;;;;;;;1.73;0.80;;;;;;;;;;5046235;28;20075;-45
2022/09/22 16:49:54;;;;;;;0.80;0.75;;;;;;;;;;5046479;28;20566;-47